createdAt,value
2019-03-21T00:01:24.853Z,97.06
2019-03-21T00:04:30.351Z,97.18
2019-03-21T00:07:35.603Z,97.34
2019-03-21T00:11:23.995Z,97.10
2019-03-21T00:14:56.025Z,96.70
2019-03-21T00:18:10.178Z,96.64
2019-03-21T00:21:15.287Z,96.77
2019-03-21T00:24:20.371Z,96.92
2019-03-21T00:27:25.411Z,97.09
2019-03-21T00:30:31.632Z,97.19
2019-03-21T00:33:37.190Z,97.08
2019-03-21T00:36:42.501Z,97.10
2019-03-21T00:39:47.639Z,97.16
2019-03-21T00:42:53.287Z,97.05
2019-03-21T00:45:58.333Z,96.86
2019-03-21T00:49:03.333Z,96.88
2019-03-21T00:52:11.114Z,96.61
2019-03-21T00:55:17.644Z,96.31
2019-03-21T00:58:22.634Z,96.49
2019-03-21T01:01:28.882Z,96.68
2019-03-21T01:04:35.131Z,96.30
2019-03-21T01:07:40.076Z,96.33
2019-03-21T01:10:45.083Z,96.55
2019-03-21T01:13:49.965Z,96.55
2019-03-21T01:16:55.227Z,96.39
2019-03-21T01:20:00.192Z,96.22
2019-03-21T01:23:05.224Z,96.09
2019-03-21T01:26:10.278Z,95.90
2019-03-21T01:29:18.937Z,95.58
2019-03-21T01:32:23.804Z,95.75
2019-03-21T01:35:28.785Z,95.64
2019-03-21T01:38:33.641Z,95.49
2019-03-21T01:41:57.278Z,95.79
2019-03-21T01:45:02.230Z,95.42
2019-03-21T01:48:07.070Z,95.63
2019-03-21T01:51:11.957Z,95.53
2019-03-21T01:54:16.782Z,95.75
2019-03-21T01:57:21.970Z,95.72
2019-03-21T02:00:29.493Z,95.42
2019-03-21T02:03:37.355Z,95.76
2019-03-21T02:06:42.188Z,95.81
2019-03-21T02:09:47.084Z,95.58
2019-03-21T02:12:54.097Z,95.87
2019-03-21T02:15:59.368Z,96.08
2019-03-21T02:19:04.425Z,96.30
2019-03-21T02:22:09.216Z,95.92
2019-03-21T02:25:19.795Z,96.22
2019-03-21T02:28:24.592Z,96.39
2019-03-21T02:31:30.537Z,96.02
2019-03-21T02:34:35.449Z,95.77
2019-03-21T02:37:40.368Z,95.87
2019-03-21T02:40:45.452Z,95.93
2019-03-21T02:43:50.380Z,96.15
2019-03-21T02:46:55.366Z,96.56
2019-03-21T02:50:03.602Z,96.66
2019-03-21T02:53:08.422Z,96.54
2019-03-21T02:56:15.156Z,96.47
2019-03-21T02:59:20.154Z,96.17
2019-03-21T03:02:24.955Z,95.81
2019-03-21T03:05:31.042Z,95.83
2019-03-21T03:08:35.898Z,96.10
2019-03-21T03:11:42.927Z,96.29
2019-03-21T03:14:47.765Z,96.46
2019-03-21T03:17:55.930Z,96.30
2019-03-21T03:21:03.982Z,96.32
2019-03-21T03:24:09.759Z,96.91
2019-03-21T03:27:14.675Z,97.35
2019-03-21T03:30:21.360Z,97.62
2019-03-21T03:33:26.188Z,97.68
2019-03-21T03:36:31.030Z,97.68
2019-03-21T03:39:37.154Z,97.91
2019-03-21T03:42:42.162Z,98.16
2019-03-21T03:45:47.099Z,98.22
2019-03-21T03:48:51.910Z,97.86
2019-03-21T03:51:59.572Z,97.59
2019-03-21T03:55:04.622Z,97.33
2019-03-21T03:58:11.835Z,97.00
2019-03-21T04:01:16.656Z,97.17
2019-03-21T04:04:21.792Z,97.17
2019-03-21T04:07:27.943Z,97.05
2019-03-21T04:10:35.212Z,96.78
2019-03-21T04:13:40.129Z,96.52
2019-03-21T04:16:44.977Z,96.63
2019-03-21T04:19:49.897Z,96.46
2019-03-21T04:22:54.847Z,96.53
2019-03-21T04:26:06.262Z,96.93
2019-03-21T04:29:11.083Z,96.81
2019-03-21T04:32:15.893Z,96.97
2019-03-21T04:35:20.830Z,97.09
2019-03-21T04:38:25.861Z,97.16
2019-03-21T04:41:30.708Z,97.31
2019-03-21T04:44:35.543Z,97.48
2019-03-21T04:47:40.448Z,97.48
2019-03-21T04:50:45.412Z,97.68
2019-03-21T04:53:50.249Z,97.81
2019-03-21T04:56:55.158Z,97.52
2019-03-21T05:00:03.647Z,96.80
2019-03-21T05:03:08.773Z,97.21
2019-03-21T05:06:13.584Z,97.55
2019-03-21T05:09:20.198Z,97.73
2019-03-21T05:12:25.072Z,98.02
2019-03-21T05:15:32.622Z,98.02
2019-03-21T05:18:38.799Z,98.00
2019-03-21T05:21:45.163Z,98.29
2019-03-21T05:24:50.010Z,98.14
2019-03-21T05:27:54.947Z,98.08
2019-03-21T05:31:05.799Z,98.37
2019-03-21T05:34:10.651Z,97.99
2019-03-21T05:37:15.571Z,97.91
2019-03-21T05:40:20.900Z,98.12
2019-03-21T05:43:35.631Z,98.10
2019-03-21T05:46:40.550Z,98.04
2019-03-21T05:49:45.438Z,97.86
2019-03-21T05:52:50.400Z,98.02
2019-03-21T05:55:59.410Z,98.00
2019-03-21T05:59:04.705Z,98.08
2019-03-21T06:02:09.621Z,98.13
2019-03-21T06:05:17.270Z,98.34
2019-03-21T06:08:25.497Z,98.59
2019-03-21T06:11:30.577Z,98.73
2019-03-21T06:14:38.983Z,98.65
2019-03-21T06:17:43.703Z,98.28
2019-03-21T06:21:09.765Z,97.90
2019-03-21T06:24:26.729Z,97.64
2019-03-21T06:27:31.792Z,98.27
2019-03-21T06:30:36.729Z,98.69
2019-03-21T06:33:41.679Z,98.82
2019-03-21T06:36:46.607Z,98.84
2019-03-21T06:39:51.575Z,98.84
2019-03-21T06:42:56.488Z,98.60
2019-03-21T06:46:01.450Z,98.60
2019-03-21T06:49:06.368Z,98.71
2019-03-21T06:52:11.223Z,98.27
2019-03-21T06:55:16.055Z,98.15
2019-03-21T06:58:20.886Z,98.18
2019-03-21T07:01:26.134Z,98.25
2019-03-21T07:04:31.043Z,98.18
2019-03-21T07:07:37.304Z,98.08
2019-03-21T07:10:42.212Z,98.23
2019-03-21T07:13:47.091Z,98.11
2019-03-21T07:17:00.028Z,98.03
2019-03-21T07:19:58.684Z,98.04
2019-03-21T07:23:03.495Z,97.51
2019-03-21T07:26:08.343Z,97.64
2019-03-21T07:29:16.024Z,97.70
2019-03-21T07:32:20.857Z,97.70
2019-03-21T07:35:25.684Z,97.59
2019-03-21T07:38:30.500Z,97.59
2019-03-21T07:41:35.376Z,97.24
2019-03-21T07:45:01.317Z,97.03
2019-03-21T07:48:06.269Z,96.97
2019-03-21T07:51:11.207Z,96.89
2019-03-21T07:54:19.181Z,96.37
2019-03-21T07:57:24.104Z,96.67
2019-03-21T08:00:29.160Z,97.01
2019-03-21T08:03:34.105Z,96.81
2019-03-21T08:06:38.974Z,96.74
2019-03-21T08:10:46.259Z,97.06
2019-03-21T08:13:52.633Z,97.64
2019-03-21T08:16:57.553Z,97.53
2019-03-21T08:20:02.471Z,97.30
2019-03-21T08:23:07.623Z,97.52
2019-03-21T08:26:14.412Z,97.61
2019-03-21T08:29:22.141Z,97.06
2019-03-21T08:32:28.307Z,96.79
2019-03-21T08:35:33.258Z,96.96
2019-03-21T08:38:39.397Z,97.20
2019-03-21T08:41:44.241Z,96.78
2019-03-21T08:44:49.111Z,96.47
2019-03-21T08:47:54.079Z,95.85
2019-03-21T08:51:07.738Z,96.24
2019-03-21T08:54:05.911Z,95.96
2019-03-21T08:57:10.859Z,96.08
2019-03-21T09:00:18.741Z,96.12
2019-03-21T09:09:01.352Z,94.45
2019-03-21T09:12:09.198Z,94.81
2019-03-21T09:15:17.623Z,94.80
2019-03-21T09:18:22.555Z,94.04
2019-03-21T09:21:30.439Z,93.39
2019-03-21T09:24:38.355Z,92.78
2019-03-21T09:27:43.177Z,92.60
2019-03-21T09:30:50.510Z,92.52
2019-03-21T09:33:57.528Z,92.93
2019-03-21T09:37:05.410Z,93.02
2019-03-21T09:40:10.853Z,92.11
2019-03-21T09:43:17.456Z,91.17
2019-03-21T09:46:22.504Z,91.35
2019-03-21T09:49:27.374Z,91.53
2019-03-21T09:52:32.297Z,90.65
2019-03-21T09:55:37.130Z,90.71
2019-03-21T09:58:42.090Z,90.79
2019-03-21T10:01:47.354Z,90.76
2019-03-21T10:04:52.292Z,90.39
2019-03-21T10:07:59.446Z,91.13
2019-03-21T10:11:03.974Z,91.56
2019-03-21T10:14:08.891Z,90.67
2019-03-21T10:17:13.859Z,90.78
2019-03-21T10:20:18.729Z,90.79
2019-03-21T10:23:23.610Z,91.23
2019-03-21T10:26:28.763Z,91.57
2019-03-21T10:29:33.721Z,91.40
2019-03-21T10:32:38.573Z,92.47
2019-03-21T10:35:43.554Z,92.77
2019-03-21T10:38:48.525Z,92.32
2019-03-21T10:41:53.443Z,92.58
2019-03-21T10:44:59.555Z,92.38
2019-03-21T10:48:04.586Z,93.03
2019-03-21T10:51:09.502Z,92.92
2019-03-21T10:54:15.610Z,92.13
2019-03-21T10:57:20.430Z,92.10
2019-03-21T11:00:25.234Z,91.94
2019-03-21T11:03:30.163Z,93.05
2019-03-21T11:06:35.166Z,93.09
2019-03-21T11:09:41.262Z,93.35
2019-03-21T11:12:46.242Z,93.11
2019-03-21T11:15:51.159Z,92.94
2019-03-21T11:18:55.974Z,93.55
2019-03-21T11:22:06.259Z,94.64
2019-03-21T11:25:07.547Z,95.34
2019-03-21T11:28:13.169Z,95.79
2019-03-21T11:31:18.115Z,96.17
2019-03-21T11:34:22.933Z,96.43
2019-03-21T11:37:27.857Z,96.42
2019-03-21T11:40:32.689Z,95.87
2019-03-21T11:43:37.723Z,95.84
2019-03-21T11:46:42.570Z,95.59
2019-03-21T11:49:47.391Z,95.76
2019-03-21T11:52:53.968Z,96.11
2019-03-21T11:55:58.816Z,95.84
2019-03-21T11:59:03.702Z,95.06
2019-03-21T12:02:08.616Z,95.33
2019-03-21T12:05:13.696Z,95.93
2019-03-21T12:08:18.517Z,96.26
2019-03-21T12:11:23.439Z,96.17
2019-03-21T12:14:28.252Z,96.19
2019-03-21T12:17:33.078Z,96.13
2019-03-21T12:20:37.904Z,95.72
2019-03-21T12:23:42.720Z,95.70
2019-03-21T12:26:47.560Z,95.38
2019-03-21T12:29:52.436Z,95.47
2019-03-21T12:32:57.435Z,95.38
2019-03-21T12:36:02.265Z,95.43
2019-03-21T12:39:09.728Z,94.95
2019-03-21T12:42:14.551Z,94.88
2019-03-21T12:45:22.261Z,94.74
2019-03-21T12:48:28.228Z,94.24
2019-03-21T12:51:35.008Z,94.33
2019-03-21T12:54:39.839Z,94.07
2019-03-21T12:57:44.691Z,94.00
2019-03-21T13:00:49.520Z,94.05
2019-03-21T13:03:54.366Z,93.61
2019-03-21T13:06:59.348Z,93.35
2019-03-21T13:10:04.948Z,93.33
2019-03-21T13:13:11.118Z,92.80
2019-03-21T13:16:16.058Z,93.02
2019-03-21T13:19:20.888Z,93.07
2019-03-21T13:22:25.869Z,92.23
2019-03-21T13:25:33.697Z,92.84
2019-03-21T13:28:38.716Z,92.95
2019-03-21T13:31:43.592Z,92.66
2019-03-21T13:34:48.408Z,92.43
2019-03-21T13:37:54.060Z,92.65
2019-03-21T13:40:59.066Z,92.03
2019-03-21T13:44:04.225Z,91.81
2019-03-21T13:47:09.191Z,92.00
2019-03-21T13:50:14.301Z,91.53
2019-03-21T13:53:19.335Z,91.22
2019-03-21T13:56:24.503Z,90.77
2019-03-21T13:59:29.417Z,90.82
2019-03-21T14:02:34.267Z,91.49
2019-03-21T14:05:40.353Z,91.63
2019-03-21T14:08:45.191Z,91.75
2019-03-21T14:11:52.290Z,92.08
2019-03-21T14:14:56.849Z,91.56
2019-03-21T14:18:04.748Z,91.33
2019-03-21T14:21:10.701Z,91.78
2019-03-21T14:24:15.517Z,91.99
2019-03-21T14:27:20.455Z,91.81
2019-03-21T14:30:25.385Z,91.66
2019-03-21T14:33:32.353Z,91.73
2019-03-21T14:36:37.283Z,91.76
2019-03-21T14:39:42.234Z,92.32
2019-03-21T14:42:47.176Z,91.98
2019-03-21T14:45:51.975Z,91.81
2019-03-21T14:48:56.793Z,92.27
2019-03-21T14:52:03.632Z,92.45
2019-03-21T14:55:08.960Z,92.48
2019-03-21T14:58:13.822Z,92.53
2019-03-21T15:01:18.652Z,93.03
2019-03-21T15:04:23.488Z,93.37
2019-03-21T15:07:28.503Z,93.18
2019-03-21T15:10:36.065Z,92.81
2019-03-21T15:13:40.908Z,92.93
2019-03-21T15:16:46.021Z,93.74
2019-03-21T15:19:52.334Z,94.05
2019-03-21T15:22:57.230Z,94.05
2019-03-21T15:26:02.223Z,93.84
2019-03-21T15:29:07.168Z,93.71
2019-03-21T15:32:12.014Z,93.78
2019-03-21T15:35:17.474Z,93.62
2019-03-21T15:38:22.376Z,94.13
2019-03-21T15:41:31.275Z,94.47
2019-03-21T15:44:36.128Z,94.53
2019-03-21T15:47:42.287Z,95.17
2019-03-21T15:50:47.232Z,95.25
2019-03-21T15:53:56.361Z,95.94
2019-03-21T15:56:58.763Z,96.38
2019-03-21T16:00:03.688Z,96.63
2019-03-21T16:03:09.187Z,96.23
2019-03-21T16:06:14.208Z,96.22
2019-03-21T16:09:22.055Z,96.15
2019-03-21T16:12:30.152Z,96.32
2019-03-21T16:15:35.005Z,96.67
2019-03-21T16:18:41.909Z,96.80
2019-03-21T16:21:47.765Z,97.05
2019-03-21T16:24:53.531Z,97.12
2019-03-21T16:27:59.163Z,97.23
2019-03-21T16:31:05.003Z,97.16
2019-03-21T16:34:10.448Z,97.12
2019-03-21T16:37:19.340Z,97.25
2019-03-21T16:40:25.134Z,97.02
2019-03-21T16:43:30.594Z,96.87
2019-03-21T16:46:36.016Z,96.59
2019-03-21T16:49:41.147Z,96.66
2019-03-21T16:52:46.398Z,96.80
2019-03-21T16:55:51.987Z,97.09
2019-03-21T16:58:58.852Z,97.43
2019-03-21T17:02:03.975Z,97.54
2019-03-21T17:05:09.634Z,97.56
2019-03-21T17:08:17.951Z,97.60
2019-03-21T17:11:22.890Z,97.65
2019-03-21T17:14:27.830Z,97.46
2019-03-21T17:17:32.828Z,97.53
2019-03-21T17:20:37.720Z,97.29
2019-03-21T17:23:42.673Z,97.07
2019-03-21T17:26:47.542Z,96.91
2019-03-21T17:29:52.515Z,96.75
2019-03-21T17:32:59.251Z,96.34
2019-03-21T17:36:04.139Z,96.36
2019-03-21T17:39:10.159Z,96.42
2019-03-21T17:42:16.309Z,96.46
2019-03-21T17:45:21.354Z,96.39
2019-03-21T17:48:26.346Z,96.65
2019-03-21T17:51:31.215Z,96.85
2019-03-21T17:54:41.545Z,96.86
2019-03-21T17:57:42.733Z,97.09
2019-03-21T18:00:51.251Z,97.36
2019-03-21T18:03:56.725Z,97.54
2019-03-21T18:07:01.695Z,97.64
2019-03-21T18:10:08.023Z,97.57
2019-03-21T18:13:12.980Z,97.38
2019-03-21T18:16:19.944Z,97.60
2019-03-21T18:19:24.911Z,97.58
2019-03-21T18:22:29.956Z,97.81
2019-03-21T18:25:34.878Z,97.92
2019-03-21T18:28:41.061Z,97.86
2019-03-21T18:31:45.902Z,97.88
2019-03-21T18:34:51.207Z,97.90
2019-03-21T18:37:56.175Z,97.77
2019-03-21T18:41:01.215Z,97.84
2019-03-21T18:44:06.332Z,97.72
2019-03-21T18:47:12.895Z,97.67
2019-03-21T18:50:18.126Z,97.68
2019-03-21T18:53:23.581Z,97.55
2019-03-21T18:56:28.539Z,97.55
2019-03-21T18:59:34.845Z,97.47
2019-03-21T19:02:39.820Z,97.42
2019-03-21T19:05:46.239Z,97.40
2019-03-21T19:08:51.108Z,97.33
2019-03-21T19:11:57.404Z,97.16
2019-03-21T19:15:10.610Z,97.13
2019-03-21T19:18:18.862Z,97.05
2019-03-21T19:21:24.220Z,96.88
2019-03-21T19:24:29.265Z,96.82
2019-03-21T19:27:35.405Z,96.88
2019-03-21T19:30:44.983Z,96.85
2019-03-21T19:33:51.218Z,96.96
2019-03-21T19:36:56.388Z,97.04
2019-03-21T19:40:01.473Z,97.23
2019-03-21T19:43:06.438Z,97.14
2019-03-21T19:46:13.631Z,97.16
2019-03-21T19:49:20.116Z,97.19
2019-03-21T19:52:27.010Z,97.33
2019-03-21T19:55:33.806Z,97.32
2019-03-21T19:58:38.703Z,97.37
2019-03-21T20:01:43.728Z,97.37
2019-03-21T20:04:48.775Z,97.39
2019-03-21T20:07:56.627Z,97.28
2019-03-21T20:11:01.593Z,97.71
2019-03-21T20:14:06.808Z,98.02
2019-03-21T20:17:11.950Z,98.03
2019-03-21T20:20:17.323Z,98.02
2019-03-21T20:23:24.606Z,98.01
2019-03-21T20:26:29.490Z,98.33
2019-03-21T20:29:34.527Z,98.40
2019-03-21T20:32:39.642Z,98.27
2019-03-21T20:35:44.796Z,98.38
2019-03-21T20:38:49.656Z,98.43
2019-03-21T20:41:54.688Z,98.27
2019-03-21T20:44:59.580Z,97.95
2019-03-21T20:48:07.752Z,97.70
2019-03-21T20:51:12.707Z,97.44
2019-03-21T20:54:17.581Z,97.34
2019-03-21T20:57:22.420Z,97.87
2019-03-21T21:00:27.617Z,98.04
2019-03-21T21:03:34.046Z,98.37
2019-03-21T21:06:38.999Z,98.73
2019-03-21T21:09:46.680Z,98.88
2019-03-21T21:12:51.616Z,98.90
2019-03-21T21:15:56.578Z,98.94
2019-03-21T21:19:04.209Z,99.02
2019-03-21T21:22:09.111Z,99.22
2019-03-21T21:25:14.258Z,99.19
2019-03-21T21:28:19.199Z,99.53
2019-03-21T21:31:24.150Z,99.83
2019-03-21T21:34:29.007Z,99.97
2019-03-21T21:37:33.863Z,100.00
2019-03-21T21:40:40.233Z,100.00
2019-03-21T21:43:45.102Z,100.00
2019-03-21T21:46:49.899Z,100.00
2019-03-21T21:49:54.736Z,100.00
2019-03-21T21:52:59.588Z,100.00
2019-03-21T21:56:16.869Z,100.00
2019-03-21T21:59:11.120Z,100.00
2019-03-21T22:02:17.206Z,100.00
2019-03-21T22:05:22.086Z,100.00
2019-03-21T22:08:27.260Z,100.00
2019-03-21T22:11:32.332Z,100.00
2019-03-21T22:14:37.426Z,100.00
2019-03-21T22:17:42.500Z,100.00
2019-03-21T22:20:47.698Z,100.00
2019-03-21T22:23:52.809Z,100.00
2019-03-21T22:26:57.759Z,100.00
2019-03-21T22:30:04.359Z,100.00
2019-03-21T22:33:09.522Z,100.00
2019-03-21T22:36:14.465Z,100.00
2019-03-21T22:39:19.296Z,100.00
2019-03-21T22:42:25.607Z,100.00
2019-03-21T22:45:31.531Z,100.00
2019-03-21T22:48:36.376Z,100.00
2019-03-21T22:51:41.200Z,100.00
2019-03-21T22:54:46.056Z,100.00
2019-03-21T22:57:50.910Z,100.00
2019-03-21T23:00:55.696Z,100.00
2019-03-21T23:04:02.734Z,100.00
2019-03-21T23:07:06.986Z,100.00
2019-03-21T23:10:12.411Z,100.00
2019-03-21T23:13:17.155Z,100.00
2019-03-21T23:16:22.123Z,100.00
2019-03-21T23:19:28.060Z,100.00
2019-03-21T23:22:34.129Z,100.00
2019-03-21T23:25:39.113Z,100.00
2019-03-21T23:28:43.905Z,100.00
2019-03-21T23:31:48.779Z,100.00
2019-03-21T23:34:53.593Z,100.00
2019-03-21T23:37:58.409Z,100.00
2019-03-21T23:41:03.337Z,100.00
2019-03-21T23:44:08.167Z,100.00
2019-03-21T23:47:15.727Z,100.00
2019-03-21T23:50:20.536Z,100.00
2019-03-21T23:53:25.372Z,99.96
2019-03-21T23:56:30.523Z,99.75
2019-03-21T23:59:35.334Z,99.53
